Marine Rouge — JG5115 — position and weather

sailwx.info

Track history (hours):
 
Tides and Currents Weather Stations Pressure Air Temp Water Temp Dewpoint Dewpoint Depression Visibility Wind Speed Wind Dir Waves Ship Positions

Marine Rouge

Last reported at 2016-May-05 12:32 UTC. Time now 2016-May-05 18:05 UTC.
Position N 35°27' E 139°39'.

Length 52 m; draft 2.8 m.

Type: Passenger vessel. MMSI: 431000518.

Date/timePositionNaut miles runAvg speedWind from/ knotsBaromVisibWave heightAir tempDewpointWater temp
2016-May-05 12:32N 35°27' E 139°39'1 0.9
2016-May-05 11:34N 35°28' E 139°39'0 0.3
2016-May-05 10:33N 35°27' E 139°39'1 0.6
2016-May-05 09:33N 35°27' E 139°39'0 0.0
2016-May-05 08:33N 35°27' E 139°39'1 0.5
2016-May-05 07:33N 35°27' E 139°39'1 0.5
2016-May-05 06:34N 35°27' E 139°39'0 0.1
2016-May-05 05:34N 35°27' E 139°39'0 0.1
2016-May-05 04:34N 35°27' E 139°39'0 0.5
2016-May-05 03:34N 35°27' E 139°39'0 0.5
2016-May-05 02:34N 35°27' E 139°39'0 0.0
2016-May-05 01:34N 35°27' E 139°39'0 0.0
2016-May-05 00:34N 35°27' E 139°39'1 0.1
2016-May-04 11:33N 35°28' E 139°39'2 1.6
2016-May-04 10:33N 35°27' E 139°40'1 1.2
2016-May-04 09:33N 35°27' E 139°39'0 0.0
2016-May-04 08:33N 35°27' E 139°39'1 1.3
2016-May-04 07:33N 35°27' E 139°41'1 1.3
2016-May-04 06:33N 35°27' E 139°39'0 0.1
2016-May-04 05:33N 35°27' E 139°39'0 0.2
2016-May-04 04:33N 35°27' E 139°39'1 1.2
2016-May-04 03:33N 35°27' E 139°40'1 1.2
2016-May-04 02:33N 35°27' E 139°39'0 0.3
2016-May-04 01:33N 35°27' E 139°39'0 0.3
2016-May-04 00:33N 35°27' E 139°39'0 0.0
2016-May-03 12:05N 35°27' E 139°39'1 1.7
2016-May-03 11:33N 35°28' E 139°39'1 1.3
2016-May-03 10:33N 35°27' E 139°41'1 1.2
2016-May-03 09:33N 35°27' E 139°39'0 0.0
2016-May-03 08:33N 35°27' E 139°39'1 1.2
2016-May-03 07:33N 35°28' E 139°40'1 1.2
2016-May-03 06:33N 35°27' E 139°39'0 0.1
2016-May-03 05:34N 35°27' E 139°39'0 0.1
2016-May-03 04:34N 35°27' E 139°39'1 0.5
2016-May-03 03:33N 35°27' E 139°39'1 0.5
2016-May-03 02:34N 35°27' E 139°39'0 0.0
2016-May-03 01:34N 35°27' E 139°39'0 0.0
2016-May-03 00:34N 35°27' E 139°39'0 0.0
2016-May-02 12:33N 35°27' E 139°39'1 1.0
2016-May-02 11:34N 35°28' E 139°39'0 0.4
2016-May-02 10:34N 35°27' E 139°39'1 0.6
2016-May-02 09:34N 35°27' E 139°39'0 0.0
2016-May-02 08:34N 35°27' E 139°39'2 1.8
2016-May-02 07:33N 35°27' E 139°41'2 1.8
2016-May-02 06:33N 35°27' E 139°39'0 0.1
2016-May-02 05:34N 35°27' E 139°39'0 0.1
2016-May-02 04:34N 35°27' E 139°39'1 0.5
2016-May-02 03:34N 35°27' E 139°39'1 0.5
2016-May-02 02:33N 35°27' E 139°39'0 0.0
2016-May-02 01:34N 35°27' E 139°39'0 0.0
2016-May-02 00:34N 35°27' E 139°39'0 0.0
2016-May-01 12:32N 35°27' E 139°39'1 0.8
2016-May-01 11:33N 35°28' E 139°39'0 0.5
2016-May-01 10:33N 35°27' E 139°39'1 0.6
2016-May-01 09:33N 35°27' E 139°39'0 0.0
2016-May-01 08:33N 35°27' E 139°39'1 0.5
2016-May-01 07:33N 35°27' E 139°39'1 0.5
2016-May-01 06:33N 35°27' E 139°39'0 0.1
2016-May-01 05:33N 35°27' E 139°39'0 0.1
2016-May-01 04:33N 35°27' E 139°39'1 0.6
2016-May-01 03:33N 35°27' E 139°39'1 0.6
2016-May-01 02:33N 35°27' E 139°39'0 0.0
2016-May-01 01:33N 35°27' E 139°39'0 0.0
2016-May-01 00:33N 35°27' E 139°39'2 0.2
2016-Apr-30 11:33N 35°28' E 139°41'2 2.1
2016-Apr-30 10:33N 35°27' E 139°39'1 0.5
2016-Apr-30 09:33N 35°27' E 139°39'0 0.0
2016-Apr-30 08:33N 35°27' E 139°39'2 2.5
2016-Apr-30 07:33N 35°27' E 139°42'2 2.5
2016-Apr-30 06:33N 35°27' E 139°39'0 0.1
2016-Apr-30 05:33N 35°27' E 139°39'0 0.1
2016-Apr-30 04:33N 35°27' E 139°39'1 0.6
2016-Apr-30 03:34N 35°27' E 139°39'1 0.6
2016-Apr-30 02:33N 35°27' E 139°39'0 0.0
2016-Apr-30 01:33N 35°27' E 139°39'0 0.0
2016-Apr-30 00:33N 35°27' E 139°39'1 0.1
2016-Apr-29 11:34N 35°28' E 139°39'1 0.9
2016-Apr-29 10:33N 35°27' E 139°39'0 0.0
2016-Apr-29 09:34N 35°27' E 139°39'0 0.0
2016-Apr-29 08:34N 35°27' E 139°39'0 0.0
2016-Apr-29 07:33N 35°27' E 139°39'0 0.0
2016-Apr-29 06:33N 35°27' E 139°39'0 0.0
2016-Apr-29 05:34N 35°27' E 139°39'0 0.0
2016-Apr-29 04:33N 35°27' E 139°39'1 1.4
2016-Apr-29 03:33N 35°27' E 139°41'1 1.4
2016-Apr-29 02:33N 35°27' E 139°39'0 0.0
2016-Apr-29 01:33N 35°27' E 139°39'0 0.0
2016-Apr-29 00:34N 35°27' E 139°39'0 0.0
2016-Apr-28 12:34N 35°27' E 139°39'1 1.1
2016-Apr-28 11:34N 35°28' E 139°40'1 1.0
2016-Apr-28 10:34N 35°27' E 139°39'0 0.5
2016-Apr-28 09:34N 35°27' E 139°39'0 0.0
2016-Apr-28 08:34N 35°27' E 139°39'0 0.0
2016-Apr-28 07:34N 35°27' E 139°39'0 0.0
2016-Apr-28 06:34N 35°27' E 139°39'0 0.1
2016-Apr-28 05:34N 35°27' E 139°39'0 0.1
2016-Apr-28 04:34N 35°27' E 139°39'1 0.6
2016-Apr-28 03:34N 35°27' E 139°39'1 0.6
2016-Apr-28 02:34N 35°27' E 139°39'0 0.0
2016-Apr-28 01:34N 35°27' E 139°39'1 0.6
2016-Apr-28 00:33N 35°27' E 139°39'1 0.6
2016-Apr-27 23:34N 35°27' E 139°39'1 0.1
2016-Apr-27 11:34N 35°28' E 139°39'1 0.7
2016-Apr-27 10:33N 35°27' E 139°39'1 0.7
2016-Apr-27 09:33N 35°27' E 139°39'0 0.0
2016-Apr-27 08:33N 35°27' E 139°39'1 0.7
2016-Apr-27 07:33N 35°27' E 139°39'1 0.7
2016-Apr-27 06:33N 35°27' E 139°39'0 0.1
2016-Apr-27 05:33N 35°27' E 139°39'0 0.1
2016-Apr-27 04:33N 35°27' E 139°39'1 0.6
2016-Apr-27 03:33N 35°27' E 139°39'1 0.6
2016-Apr-27 02:33N 35°27' E 139°39'0 0.0
2016-Apr-27 01:33N 35°27' E 139°39'0 0.0
2016-Apr-27 00:33N 35°27' E 139°39'0 0.0
2016-Apr-26 12:33N 35°27' E 139°39'1 1.0
2016-Apr-26 11:34N 35°28' E 139°38'1 0.6
2016-Apr-26 10:33N 35°27' E 139°39'1 0.5
2016-Apr-26 09:33N 35°27' E 139°39'0 0.0
2016-Apr-26 08:33N 35°27' E 139°39'3 3.1
2016-Apr-26 07:33N 35°28' E 139°43'3 3.1
2016-Apr-26 06:33N 35°27' E 139°39'0 0.1
2016-Apr-26 05:34N 35°27' E 139°39'0 0.1
2016-Apr-26 04:33N 35°27' E 139°39'1 0.5
2016-Apr-26 03:33N 35°27' E 139°39'1 0.5
2016-Apr-26 02:33N 35°27' E 139°39'0 0.0
2016-Apr-26 01:33N 35°27' E 139°39'0 0.0
2016-Apr-26 00:33N 35°27' E 139°39'  
Track history (hours):
 
Tides and Currents Weather Stations Pressure Air Temp Water Temp Dewpoint Dewpoint Depression Visibility Wind Speed Wind Dir Waves Ship Positions

Marine Rouge

Last reported at 2016-May-05 12:32 UTC. Time now 2016-May-05 18:05 UTC.
Position N 35°27' E 139°39'.

Length 52 m; draft 2.8 m.

Type: Passenger vessel. MMSI: 431000518.

Date/timePositionNaut miles runAvg speedWind from/ knotsBaromVisibWave heightAir tempDewpointWater temp
2016-May-05 12:32N 35°27' E 139°39'1 0.9
2016-May-05 11:34N 35°28' E 139°39'0 0.3
2016-May-05 10:33N 35°27' E 139°39'1 0.6
2016-May-05 09:33N 35°27' E 139°39'0 0.0
2016-May-05 08:33N 35°27' E 139°39'1 0.5
2016-May-05 07:33N 35°27' E 139°39'1 0.5
2016-May-05 06:34N 35°27' E 139°39'0 0.1
2016-May-05 05:34N 35°27' E 139°39'0 0.1
2016-May-05 04:34N 35°27' E 139°39'0 0.5
2016-May-05 03:34N 35°27' E 139°39'0 0.5
2016-May-05 02:34N 35°27' E 139°39'0 0.0
2016-May-05 01:34N 35°27' E 139°39'0 0.0
2016-May-05 00:34N 35°27' E 139°39'1 0.1
2016-May-04 11:33N 35°28' E 139°39'2 1.6
2016-May-04 10:33N 35°27' E 139°40'1 1.2
2016-May-04 09:33N 35°27' E 139°39'0 0.0
2016-May-04 08:33N 35°27' E 139°39'1 1.3
2016-May-04 07:33N 35°27' E 139°41'1 1.3
2016-May-04 06:33N 35°27' E 139°39'0 0.1
2016-May-04 05:33N 35°27' E 139°39'0 0.2
2016-May-04 04:33N 35°27' E 139°39'1 1.2
2016-May-04 03:33N 35°27' E 139°40'1 1.2
2016-May-04 02:33N 35°27' E 139°39'0 0.3
2016-May-04 01:33N 35°27' E 139°39'0 0.3
2016-May-04 00:33N 35°27' E 139°39'0 0.0
2016-May-03 12:05N 35°27' E 139°39'1 1.7
2016-May-03 11:33N 35°28' E 139°39'1 1.3
2016-May-03 10:33N 35°27' E 139°41'1 1.2
2016-May-03 09:33N 35°27' E 139°39'0 0.0
2016-May-03 08:33N 35°27' E 139°39'1 1.2
2016-May-03 07:33N 35°28' E 139°40'1 1.2
2016-May-03 06:33N 35°27' E 139°39'0 0.1
2016-May-03 05:34N 35°27' E 139°39'0 0.1
2016-May-03 04:34N 35°27' E 139°39'1 0.5
2016-May-03 03:33N 35°27' E 139°39'1 0.5
2016-May-03 02:34N 35°27' E 139°39'0 0.0
2016-May-03 01:34N 35°27' E 139°39'0 0.0
2016-May-03 00:34N 35°27' E 139°39'0 0.0
2016-May-02 12:33N 35°27' E 139°39'1 1.0
2016-May-02 11:34N 35°28' E 139°39'0 0.4
2016-May-02 10:34N 35°27' E 139°39'1 0.6
2016-May-02 09:34N 35°27' E 139°39'0 0.0
2016-May-02 08:34N 35°27' E 139°39'2 1.8
2016-May-02 07:33N 35°27' E 139°41'2 1.8
2016-May-02 06:33N 35°27' E 139°39'0 0.1
2016-May-02 05:34N 35°27' E 139°39'0 0.1
2016-May-02 04:34N 35°27' E 139°39'1 0.5
2016-May-02 03:34N 35°27' E 139°39'1 0.5
2016-May-02 02:33N 35°27' E 139°39'0 0.0
2016-May-02 01:34N 35°27' E 139°39'0 0.0
2016-May-02 00:34N 35°27' E 139°39'0 0.0
2016-May-01 12:32N 35°27' E 139°39'1 0.8
2016-May-01 11:33N 35°28' E 139°39'0 0.5
2016-May-01 10:33N 35°27' E 139°39'1 0.6
2016-May-01 09:33N 35°27' E 139°39'0 0.0
2016-May-01 08:33N 35°27' E 139°39'1 0.5
2016-May-01 07:33N 35°27' E 139°39'1 0.5
2016-May-01 06:33N 35°27' E 139°39'0 0.1
2016-May-01 05:33N 35°27' E 139°39'0 0.1
2016-May-01 04:33N 35°27' E 139°39'1 0.6
2016-May-01 03:33N 35°27' E 139°39'1 0.6
2016-May-01 02:33N 35°27' E 139°39'0 0.0
2016-May-01 01:33N 35°27' E 139°39'0 0.0
2016-May-01 00:33N 35°27' E 139°39'2 0.2
2016-Apr-30 11:33N 35°28' E 139°41'2 2.1
2016-Apr-30 10:33N 35°27' E 139°39'1 0.5
2016-Apr-30 09:33N 35°27' E 139°39'0 0.0
2016-Apr-30 08:33N 35°27' E 139°39'2 2.5
2016-Apr-30 07:33N 35°27' E 139°42'2 2.5
2016-Apr-30 06:33N 35°27' E 139°39'0 0.1
2016-Apr-30 05:33N 35°27' E 139°39'0 0.1
2016-Apr-30 04:33N 35°27' E 139°39'1 0.6
2016-Apr-30 03:34N 35°27' E 139°39'1 0.6
2016-Apr-30 02:33N 35°27' E 139°39'0 0.0
2016-Apr-30 01:33N 35°27' E 139°39'0 0.0
2016-Apr-30 00:33N 35°27' E 139°39'1 0.1
2016-Apr-29 11:34N 35°28' E 139°39'1 0.9
2016-Apr-29 10:33N 35°27' E 139°39'0 0.0
2016-Apr-29 09:34N 35°27' E 139°39'0 0.0
2016-Apr-29 08:34N 35°27' E 139°39'0 0.0
2016-Apr-29 07:33N 35°27' E 139°39'0 0.0
2016-Apr-29 06:33N 35°27' E 139°39'0 0.0
2016-Apr-29 05:34N 35°27' E 139°39'0 0.0
2016-Apr-29 04:33N 35°27' E 139°39'1 1.4
2016-Apr-29 03:33N 35°27' E 139°41'1 1.4
2016-Apr-29 02:33N 35°27' E 139°39'0 0.0
2016-Apr-29 01:33N 35°27' E 139°39'0 0.0
2016-Apr-29 00:34N 35°27' E 139°39'0 0.0
2016-Apr-28 12:34N 35°27' E 139°39'1 1.1
2016-Apr-28 11:34N 35°28' E 139°40'1 1.0
2016-Apr-28 10:34N 35°27' E 139°39'0 0.5
2016-Apr-28 09:34N 35°27' E 139°39'0 0.0
2016-Apr-28 08:34N 35°27' E 139°39'0 0.0
2016-Apr-28 07:34N 35°27' E 139°39'0 0.0
2016-Apr-28 06:34N 35°27' E 139°39'0 0.1
2016-Apr-28 05:34N 35°27' E 139°39'0 0.1
2016-Apr-28 04:34N 35°27' E 139°39'1 0.6
2016-Apr-28 03:34N 35°27' E 139°39'1 0.6
2016-Apr-28 02:34N 35°27' E 139°39'0 0.0
2016-Apr-28 01:34N 35°27' E 139°39'1 0.6
2016-Apr-28 00:33N 35°27' E 139°39'1 0.6
2016-Apr-27 23:34N 35°27' E 139°39'1 0.1
2016-Apr-27 11:34N 35°28' E 139°39'1 0.7
2016-Apr-27 10:33N 35°27' E 139°39'1 0.7
2016-Apr-27 09:33N 35°27' E 139°39'0 0.0
2016-Apr-27 08:33N 35°27' E 139°39'1 0.7
2016-Apr-27 07:33N 35°27' E 139°39'1 0.7
2016-Apr-27 06:33N 35°27' E 139°39'0 0.1
2016-Apr-27 05:33N 35°27' E 139°39'0 0.1
2016-Apr-27 04:33N 35°27' E 139°39'1 0.6
2016-Apr-27 03:33N 35°27' E 139°39'1 0.6
2016-Apr-27 02:33N 35°27' E 139°39'0 0.0
2016-Apr-27 01:33N 35°27' E 139°39'0 0.0
2016-Apr-27 00:33N 35°27' E 139°39'0 0.0
2016-Apr-26 12:33N 35°27' E 139°39'1 1.0
2016-Apr-26 11:34N 35°28' E 139°38'1 0.6
2016-Apr-26 10:33N 35°27' E 139°39'1 0.5
2016-Apr-26 09:33N 35°27' E 139°39'0 0.0
2016-Apr-26 08:33N 35°27' E 139°39'3 3.1
2016-Apr-26 07:33N 35°28' E 139°43'3 3.1
2016-Apr-26 06:33N 35°27' E 139°39'0 0.1
2016-Apr-26 05:34N 35°27' E 139°39'0 0.1
2016-Apr-26 04:33N 35°27' E 139°39'1 0.5
2016-Apr-26 03:33N 35°27' E 139°39'1 0.5
2016-Apr-26 02:33N 35°27' E 139°39'0 0.0
2016-Apr-26 01:33N 35°27' E 139°39'0 0.0
2016-Apr-26 00:33N 35°27' E 139°39'  

Dump ship's entire track history